createdAt,value
2022-08-05T00:01:28.363Z,100162.00
2022-08-05T00:03:57.073Z,100155.00
2022-08-05T00:06:32.408Z,100153.00
2022-08-05T00:09:00.496Z,100159.00
2022-08-05T00:11:30.213Z,100154.00
2022-08-05T00:13:57.228Z,100151.00
2022-08-05T00:16:35.358Z,100147.00
2022-08-05T00:19:03.535Z,100147.00
2022-08-05T00:21:30.488Z,100139.00
2022-08-05T00:24:09.800Z,100141.00
2022-08-05T00:26:37.424Z,100134.00
2022-08-05T00:29:04.081Z,100138.00
2022-08-05T00:31:54.148Z,100139.00
2022-08-05T00:34:54.361Z,100138.00
2022-08-05T00:37:11.128Z,100142.00
2022-08-05T00:39:44.481Z,100140.00
2022-08-05T00:42:35.240Z,100135.00
2022-08-05T00:45:02.565Z,100129.00
2022-08-05T00:47:53.091Z,100132.00
2022-08-05T00:50:15.834Z,100139.00
2022-08-05T00:52:42.338Z,100130.00
2022-08-05T00:55:12.288Z,100125.00
2022-08-05T00:57:58.690Z,100131.00
2022-08-05T01:00:26.747Z,100122.00
2022-08-05T01:02:53.547Z,100121.00
2022-08-05T01:05:20.120Z,100130.00
2022-08-05T01:08:40.761Z,100123.00
2022-08-05T01:10:39.079Z,100124.00
2022-08-05T01:13:13.204Z,100120.00
2022-08-05T01:15:50.885Z,100128.00
2022-08-05T01:18:26.075Z,100134.00
2022-08-05T01:21:04.815Z,100131.00
2022-08-05T01:24:02.818Z,100153.00
2022-08-05T01:26:55.060Z,100145.00
2022-08-05T01:29:27.295Z,100139.00
2022-08-05T01:32:01.052Z,100145.00
2022-08-05T01:34:32.968Z,100153.00
2022-08-05T01:37:25.213Z,100135.00
2022-08-05T01:39:54.857Z,100146.00
2022-08-05T01:42:26.731Z,100153.00
2022-08-05T01:44:56.478Z,100151.00
2022-08-05T01:47:39.619Z,100150.00
2022-08-05T01:50:15.752Z,100151.00
2022-08-05T01:52:44.628Z,100151.00
2022-08-05T01:55:18.317Z,100150.00
2022-08-05T01:58:09.430Z,100152.00
2022-08-05T02:00:33.819Z,100153.00
2022-08-05T02:03:06.894Z,100149.00
2022-08-05T02:05:53.496Z,100139.00
2022-08-05T02:08:29.742Z,100145.00
2022-08-05T02:11:23.647Z,100149.00
2022-08-05T02:13:57.185Z,100150.00
2022-08-05T02:16:44.656Z,100142.00
2022-08-05T02:19:34.348Z,100137.00
2022-08-05T02:22:28.939Z,100145.00
2022-08-05T02:25:02.032Z,100131.00
2022-08-05T02:27:57.957Z,100130.00
2022-08-05T02:30:17.967Z,100133.00
2022-08-05T02:32:51.483Z,100126.00
2022-08-05T02:35:27.970Z,100115.00
2022-08-05T02:38:02.406Z,100115.00
2022-08-05T02:40:30.056Z,100137.00
2022-08-05T02:42:57.815Z,100134.00
2022-08-05T02:45:25.660Z,100130.00
2022-08-05T02:48:06.970Z,100124.00
2022-08-05T02:50:44.134Z,100133.00
2022-08-05T02:53:12.031Z,100130.00
2022-08-05T02:55:54.046Z,100132.00
2022-08-05T02:58:26.514Z,100139.00
2022-08-05T03:00:55.923Z,100141.00
2022-08-05T03:03:23.586Z,100139.00
2022-08-05T03:06:54.363Z,100130.00
2022-08-05T03:08:42.374Z,100135.00
2022-08-05T03:11:55.788Z,100127.00
2022-08-05T03:14:09.640Z,100121.00
2022-08-05T03:16:40.838Z,100131.00
2022-08-05T03:19:16.878Z,100134.00
2022-08-05T03:21:49.655Z,100128.00
2022-08-05T03:24:30.228Z,100132.00
2022-08-05T03:26:58.729Z,100140.00
2022-08-05T03:29:44.452Z,100129.00
2022-08-05T03:32:12.031Z,100133.00
2022-08-05T03:34:41.967Z,100132.00
2022-08-05T03:37:08.529Z,100128.00
2022-08-05T03:39:57.695Z,100130.00
2022-08-05T03:42:24.090Z,100126.00
2022-08-05T03:44:54.042Z,100114.00
2022-08-05T03:47:20.533Z,100124.00
2022-08-05T03:49:51.805Z,100111.00
2022-08-05T03:52:39.331Z,100114.00
2022-08-05T03:56:04.086Z,100125.00
2022-08-05T03:57:59.242Z,100119.00
2022-08-05T04:00:29.741Z,100114.00
2022-08-05T04:03:02.529Z,100112.00
2022-08-05T04:05:36.207Z,100121.00
2022-08-05T04:08:14.846Z,100114.00
2022-08-05T04:10:54.747Z,100128.00
2022-08-05T04:13:21.979Z,100128.00
2022-08-05T04:16:02.812Z,100134.00
2022-08-05T04:18:32.134Z,100126.00
2022-08-05T04:21:01.191Z,100125.00
2022-08-05T04:24:00.277Z,100133.00
2022-08-05T04:26:17.347Z,100132.00
2022-08-05T04:28:51.136Z,100137.00
2022-08-05T04:31:19.557Z,100122.00
2022-08-05T04:33:54.634Z,100118.00
2022-08-05T04:36:45.152Z,100127.00
2022-08-05T04:39:16.706Z,100116.00
2022-08-05T04:41:43.535Z,100113.00
2022-08-05T04:44:12.288Z,100120.00
2022-08-05T04:46:39.157Z,100116.00
2022-08-05T04:49:12.139Z,100116.00
2022-08-05T04:51:42.394Z,100113.00
2022-08-05T04:54:10.170Z,100116.00
2022-08-05T04:56:38.536Z,100127.00
2022-08-05T04:59:22.273Z,100141.00
2022-08-05T05:02:06.744Z,100145.00
2022-08-05T05:04:35.073Z,100162.00
2022-08-05T05:07:04.917Z,100166.00
2022-08-05T05:09:37.383Z,100162.00
2022-08-05T05:12:05.199Z,100165.00
2022-08-05T05:14:33.015Z,100163.00
2022-08-05T05:17:03.723Z,100160.00
2022-08-05T05:19:36.847Z,100156.00
2022-08-05T05:22:23.135Z,100152.00
2022-08-05T05:24:57.874Z,100152.00
2022-08-05T05:27:45.767Z,100153.00
2022-08-05T05:30:29.334Z,100167.00
2022-08-05T05:33:00.540Z,100168.00
2022-08-05T05:35:34.449Z,100153.00
2022-08-05T05:38:09.071Z,100156.00
2022-08-05T05:40:38.843Z,100157.00
2022-08-05T05:43:10.350Z,100155.00
2022-08-05T05:45:36.906Z,100158.00
2022-08-05T05:48:16.057Z,100166.00
2022-08-05T05:50:44.304Z,100180.00
2022-08-05T05:53:22.232Z,100186.00
2022-08-05T05:55:52.364Z,100203.00
2022-08-05T05:58:31.775Z,100207.00
2022-08-05T06:01:12.166Z,100213.00
2022-08-05T06:04:00.684Z,100206.00
2022-08-05T06:06:31.223Z,100211.00
2022-08-05T06:09:00.067Z,100207.00
2022-08-05T06:11:26.726Z,100209.00
2022-08-05T06:13:56.123Z,100217.00
2022-08-05T06:16:28.598Z,100249.00
2022-08-05T06:19:00.929Z,100262.00
2022-08-05T06:21:36.085Z,100261.00
2022-08-05T06:24:10.770Z,100265.00
2022-08-05T06:26:51.507Z,100256.00
2022-08-05T06:29:43.059Z,100259.00
2022-08-05T06:32:25.465Z,100283.00
2022-08-05T06:34:56.419Z,100291.00
2022-08-05T06:37:57.055Z,100287.00
2022-08-05T06:40:11.941Z,100289.00
2022-08-05T06:42:39.738Z,100295.00
2022-08-05T06:45:08.502Z,100285.00
2022-08-05T06:48:44.177Z,100281.00
2022-08-05T06:50:22.944Z,100282.00
2022-08-05T06:52:58.428Z,100269.00
2022-08-05T06:55:36.140Z,100272.00
2022-08-05T06:58:20.594Z,100277.00
2022-08-05T07:00:49.705Z,100266.00
2022-08-05T07:03:16.884Z,100281.00
2022-08-05T07:05:43.734Z,100260.00
2022-08-05T07:08:12.862Z,100259.00
2022-08-05T07:10:53.305Z,100268.00
2022-08-05T07:13:59.269Z,100279.00
2022-08-05T07:18:02.207Z,100269.00
2022-08-05T07:20:23.121Z,100274.00
2022-08-05T07:22:28.858Z,100273.00
2022-08-05T07:25:22.633Z,100276.00
2022-08-05T07:27:58.658Z,100281.00
2022-08-05T07:30:33.351Z,100288.00
2022-08-05T07:33:05.084Z,100286.00
2022-08-05T07:36:02.372Z,100294.00
2022-08-05T07:38:32.338Z,100301.00
2022-08-05T07:41:16.715Z,100302.00
2022-08-05T07:43:49.408Z,100306.00
2022-08-05T07:46:23.463Z,100312.00
2022-08-05T07:49:01.679Z,100308.00
2022-08-05T07:51:40.219Z,100317.00
2022-08-05T07:54:09.925Z,100314.00
2022-08-05T07:57:01.413Z,100297.00
2022-08-05T07:59:38.094Z,100299.00
2022-08-05T08:02:10.601Z,100294.00
2022-08-05T08:04:45.481Z,100299.00
2022-08-05T08:07:12.546Z,100307.00
2022-08-05T08:09:39.211Z,100297.00
2022-08-05T08:12:14.641Z,100294.00
2022-08-05T08:14:52.837Z,100285.00
2022-08-05T08:17:21.337Z,100297.00
2022-08-05T08:20:23.441Z,100305.00
2022-08-05T08:22:35.190Z,100308.00
2022-08-05T08:25:16.680Z,100297.00
2022-08-05T08:27:47.973Z,100291.00
2022-08-05T08:30:32.595Z,100292.00
2022-08-05T08:33:13.864Z,100284.00
2022-08-05T08:35:52.883Z,100296.00
2022-08-05T08:38:35.968Z,100275.00
2022-08-05T08:41:09.733Z,100282.00
2022-08-05T08:45:19.194Z,100303.00
2022-08-05T08:46:28.852Z,100313.00
2022-08-05T08:49:06.345Z,100314.00
2022-08-05T08:52:03.098Z,100332.00
2022-08-05T08:54:36.251Z,100337.00
2022-08-05T08:57:05.722Z,100335.00
2022-08-05T08:59:39.022Z,100334.00
2022-08-05T09:02:08.906Z,100321.00
2022-08-05T09:04:58.164Z,100341.00
2022-08-05T09:07:28.835Z,100347.00
2022-08-05T09:09:55.964Z,100354.00
2022-08-05T09:12:27.274Z,100335.00
2022-08-05T09:15:03.953Z,100321.00
2022-08-05T09:17:40.698Z,100321.00
2022-08-05T09:20:12.306Z,100335.00
2022-08-05T09:23:05.558Z,100350.00
2022-08-05T09:26:00.228Z,100362.00
2022-08-05T09:28:24.275Z,100368.00
2022-08-05T09:31:18.152Z,100367.00
2022-08-05T09:34:04.608Z,100355.00
2022-08-05T09:36:56.022Z,100366.00
2022-08-05T09:39:41.485Z,100380.00
2022-08-05T09:42:20.289Z,100379.00
2022-08-05T09:44:56.318Z,100395.00
2022-08-05T09:47:36.458Z,100404.00
2022-08-05T09:50:13.738Z,100412.00
2022-08-05T09:52:45.446Z,100417.00
2022-08-05T09:55:56.261Z,100417.00
2022-08-05T09:58:00.364Z,100413.00
2022-08-05T10:00:30.594Z,100405.00
2022-08-05T10:02:58.398Z,100394.00
2022-08-05T10:05:28.359Z,100395.00
2022-08-05T10:08:35.204Z,100381.00
2022-08-05T10:10:50.208Z,100356.00
2022-08-05T10:13:31.579Z,100367.00
2022-08-05T10:16:29.842Z,100371.00
2022-08-05T10:18:57.125Z,100349.00
2022-08-05T10:21:23.728Z,100325.00
2022-08-05T10:23:59.445Z,100351.00
2022-08-05T10:26:32.475Z,100351.00
2022-08-05T10:29:00.563Z,100349.00
2022-08-05T10:32:53.685Z,100342.00
2022-08-05T10:34:14.080Z,100344.00
2022-08-05T10:36:41.758Z,100356.00
2022-08-05T10:39:24.067Z,100373.00
2022-08-05T10:42:03.984Z,100386.00
2022-08-05T10:44:32.375Z,100381.00
2022-08-05T10:46:59.370Z,100384.00
2022-08-05T10:49:33.378Z,100369.00
2022-08-05T10:52:49.627Z,100383.00
2022-08-05T10:55:18.521Z,100376.00
2022-08-05T10:57:46.182Z,100362.00
2022-08-05T11:00:24.276Z,100368.00
2022-08-05T11:03:24.550Z,100401.00
2022-08-05T11:06:04.920Z,100405.00
2022-08-05T11:08:37.047Z,100389.00
2022-08-05T11:11:44.457Z,100365.00
2022-08-05T11:17:58.178Z,100345.00
2022-08-05T11:20:43.745Z,100345.00
2022-08-05T11:23:49.882Z,100353.00
2022-08-05T11:26:29.061Z,100361.00
2022-08-05T11:29:12.007Z,100360.00
2022-08-05T11:31:54.478Z,100377.00
2022-08-05T11:34:51.051Z,100393.00
2022-08-05T11:38:36.715Z,100394.00
2022-08-05T11:41:12.926Z,100405.00
2022-08-05T11:44:07.567Z,100409.00
2022-08-05T11:47:09.897Z,100395.00
2022-08-05T11:49:35.617Z,100400.00
2022-08-05T11:52:08.424Z,100402.00
2022-08-05T11:54:40.663Z,100405.00
2022-08-05T11:57:39.359Z,100404.00
2022-08-05T11:59:55.114Z,100395.00
2022-08-05T12:02:33.162Z,100380.00
2022-08-05T12:05:08.070Z,100398.00
2022-08-05T12:08:10.331Z,100402.00
2022-08-05T12:10:38.388Z,100402.00
2022-08-05T12:13:27.809Z,100405.00
2022-08-05T12:16:14.692Z,100405.00
2022-08-05T12:18:48.946Z,100409.00
2022-08-05T12:21:30.762Z,100399.00
2022-08-05T12:24:07.747Z,100410.00
2022-08-05T12:26:44.158Z,100403.00
2022-08-05T12:29:22.817Z,100413.00
2022-08-05T12:31:55.244Z,100416.00
2022-08-05T12:34:25.872Z,100410.00
2022-08-05T12:36:53.790Z,100405.00
2022-08-05T12:39:21.418Z,100403.00
2022-08-05T12:41:48.701Z,100392.00
2022-08-05T12:44:32.697Z,100402.00
2022-08-05T12:47:02.241Z,100402.00
2022-08-05T12:50:03.201Z,100409.00
2022-08-05T12:52:38.122Z,100406.00
2022-08-05T12:55:22.286Z,100402.00
2022-08-05T12:58:49.459Z,100410.00
2022-08-05T13:02:01.517Z,100406.00
2022-08-05T13:03:32.346Z,100405.00
2022-08-05T13:06:01.112Z,100413.00
2022-08-05T13:08:32.363Z,100412.00
2022-08-05T13:11:04.173Z,100412.00
2022-08-05T13:14:05.297Z,100409.00
2022-08-05T13:16:19.497Z,100414.00
2022-08-05T13:18:55.029Z,100408.00
2022-08-05T13:21:28.418Z,100412.00
2022-08-05T13:24:06.280Z,100411.00
2022-08-05T13:26:35.831Z,100415.00
2022-08-05T13:29:02.391Z,100406.00
2022-08-05T13:32:03.303Z,100405.00
2022-08-05T13:34:24.606Z,100398.00
2022-08-05T13:36:53.401Z,100402.00
2022-08-05T13:39:24.547Z,100406.00
2022-08-05T13:42:07.389Z,100394.00
2022-08-05T13:44:34.793Z,100393.00
2022-08-05T13:47:08.514Z,100393.00
2022-08-05T13:49:36.058Z,100399.00
2022-08-05T13:52:16.687Z,100394.00
2022-08-05T13:54:43.821Z,100388.00
2022-08-05T13:57:20.875Z,100395.00
2022-08-05T13:59:57.107Z,100389.00
2022-08-05T14:02:26.576Z,100405.00
2022-08-05T14:05:11.989Z,100413.00
2022-08-05T14:07:59.635Z,100405.00
2022-08-05T14:10:31.323Z,100400.00
2022-08-05T14:12:58.822Z,100390.00
2022-08-05T14:16:06.890Z,100396.00
2022-08-05T14:18:17.484Z,100397.00
2022-08-05T14:20:47.981Z,100401.00
2022-08-05T14:23:23.996Z,100407.00
2022-08-05T14:25:54.130Z,100399.00
2022-08-05T14:28:26.697Z,100400.00
2022-08-05T14:30:54.925Z,100402.00
2022-08-05T14:33:22.949Z,100400.00
2022-08-05T14:35:52.011Z,100397.00
2022-08-05T14:38:32.655Z,100411.00
2022-08-05T14:41:06.705Z,100411.00
2022-08-05T14:43:57.484Z,100413.00
2022-08-05T14:46:23.257Z,100412.00
2022-08-05T14:48:56.299Z,100427.00
2022-08-05T14:51:24.149Z,100422.00
2022-08-05T14:54:25.905Z,100418.00
2022-08-05T14:56:38.103Z,100416.00
2022-08-05T14:59:11.429Z,100424.00
2022-08-05T15:01:47.848Z,100425.00
2022-08-05T15:04:16.769Z,100431.00
2022-08-05T15:06:49.378Z,100427.00
2022-08-05T15:09:51.496Z,100431.00
2022-08-05T15:12:08.867Z,100425.00
2022-08-05T15:14:48.365Z,100415.00
2022-08-05T15:17:44.582Z,100410.00
2022-08-05T15:20:05.944Z,100409.00
2022-08-05T15:22:32.558Z,100417.00
2022-08-05T15:24:59.436Z,100420.00
2022-08-05T15:27:26.669Z,100423.00
2022-08-05T15:30:03.576Z,100424.00
2022-08-05T15:32:30.167Z,100415.00
2022-08-05T15:34:58.258Z,100407.00
2022-08-05T15:38:33.318Z,100421.00
2022-08-05T15:41:00.836Z,100420.00
2022-08-05T15:43:12.854Z,100425.00
2022-08-05T15:45:45.983Z,100436.00
2022-08-05T15:48:14.417Z,100432.00
2022-08-05T15:50:43.875Z,100433.00
2022-08-05T15:53:12.977Z,100434.00
2022-08-05T15:56:02.818Z,100434.00
2022-08-05T15:58:29.106Z,100448.00
2022-08-05T16:01:17.870Z,100459.00
2022-08-05T16:03:43.223Z,100459.00
2022-08-05T16:06:11.684Z,100463.00
2022-08-05T16:08:38.911Z,100454.00
2022-08-05T16:11:10.317Z,100455.00
2022-08-05T16:13:37.275Z,100453.00
2022-08-05T16:16:04.228Z,100451.00
2022-08-05T16:18:34.750Z,100463.00
2022-08-05T16:21:18.483Z,100470.00
2022-08-05T16:24:00.195Z,100482.00
2022-08-05T16:26:30.513Z,100481.00
2022-08-05T16:28:57.483Z,100481.00
2022-08-05T16:31:27.915Z,100478.00
2022-08-05T16:34:15.488Z,100498.00
2022-08-05T16:36:42.722Z,100501.00
2022-08-05T16:39:09.917Z,100513.00
2022-08-05T16:42:27.627Z,100527.00
2022-08-05T16:44:27.623Z,100534.00
2022-08-05T16:46:55.646Z,100534.00
2022-08-05T16:49:23.479Z,100545.00
2022-08-05T16:51:50.290Z,100548.00
2022-08-05T16:54:27.544Z,100550.00
2022-08-05T16:56:58.667Z,100531.00
2022-08-05T16:59:25.218Z,100526.00
2022-08-05T17:01:56.254Z,100517.00
2022-08-05T17:04:27.414Z,100531.00
2022-08-05T17:07:01.793Z,100532.00
2022-08-05T17:09:30.407Z,100536.00
2022-08-05T17:12:06.774Z,100543.00
2022-08-05T17:14:38.076Z,100545.00
2022-08-05T17:17:06.274Z,100542.00
2022-08-05T17:19:32.963Z,100558.00
2022-08-05T17:22:05.219Z,100568.00
2022-08-05T17:24:38.663Z,100574.00
2022-08-05T17:27:11.927Z,100564.00
2022-08-05T17:29:44.029Z,100571.00
2022-08-05T17:32:17.170Z,100576.00
2022-08-05T17:34:48.093Z,100583.00
2022-08-05T17:37:39.363Z,100605.00
2022-08-05T17:40:12.178Z,100610.00
2022-08-05T17:42:41.457Z,100610.00
2022-08-05T17:45:21.257Z,100616.00
2022-08-05T17:47:53.904Z,100619.00
2022-08-05T17:50:29.664Z,100636.00
2022-08-05T17:53:03.149Z,100640.00
2022-08-05T17:55:38.280Z,100639.00
2022-08-05T17:58:12.325Z,100642.00
2022-08-05T18:00:47.797Z,100657.00
2022-08-05T18:03:59.009Z,100666.00
2022-08-05T18:06:12.170Z,100680.00
2022-08-05T18:08:45.891Z,100688.00
2022-08-05T18:11:19.425Z,100696.00
2022-08-05T18:13:51.674Z,100715.00
2022-08-05T18:16:21.666Z,100721.00
2022-08-05T18:18:49.971Z,100712.00
2022-08-05T18:21:21.090Z,100712.00
2022-08-05T18:23:53.630Z,100716.00
2022-08-05T18:26:22.250Z,100722.00
2022-08-05T18:28:56.502Z,100733.00
2022-08-05T18:31:33.747Z,100729.00
2022-08-05T18:34:03.890Z,100734.00
2022-08-05T18:36:35.303Z,100741.00
2022-08-05T18:39:04.165Z,100746.00
2022-08-05T18:41:56.091Z,100755.00
2022-08-05T18:44:33.319Z,100747.00
2022-08-05T18:47:04.109Z,100744.00
2022-08-05T18:49:58.182Z,100727.00
2022-08-05T18:52:33.629Z,100734.00
2022-08-05T18:55:05.387Z,100744.00
2022-08-05T18:57:43.642Z,100763.00
2022-08-05T19:00:20.267Z,100764.00
2022-08-05T19:02:48.194Z,100761.00
2022-08-05T19:06:11.210Z,100761.00
2022-08-05T19:08:02.720Z,100777.00
2022-08-05T19:10:30.403Z,100778.00
2022-08-05T19:13:00.089Z,100776.00
2022-08-05T19:15:59.089Z,100780.00
2022-08-05T19:18:22.046Z,100797.00
2022-08-05T19:20:52.011Z,100793.00
2022-08-05T19:24:03.588Z,100783.00
2022-08-05T19:26:05.303Z,100789.00
2022-08-05T19:28:37.538Z,100803.00
2022-08-05T19:31:08.580Z,100817.00
2022-08-05T19:33:37.978Z,100812.00
2022-08-05T19:36:08.986Z,100824.00
2022-08-05T19:38:36.229Z,100829.00
2022-08-05T19:41:07.339Z,100823.00
2022-08-05T19:44:05.699Z,100825.00
2022-08-05T19:46:30.407Z,100827.00
2022-08-05T19:49:05.120Z,100830.00
2022-08-05T19:52:05.155Z,100830.00
2022-08-05T19:54:29.594Z,100833.00
2022-08-05T19:56:59.471Z,100838.00
2022-08-05T19:59:55.053Z,100852.00
2022-08-05T20:02:14.326Z,100849.00
2022-08-05T20:04:43.255Z,100857.00
2022-08-05T20:07:13.842Z,100857.00
2022-08-05T20:09:54.788Z,100857.00
2022-08-05T20:12:24.582Z,100858.00
2022-08-05T20:14:53.075Z,100858.00
2022-08-05T20:17:23.540Z,100848.00
2022-08-05T20:19:56.823Z,100855.00
2022-08-05T20:22:27.110Z,100856.00
2022-08-05T20:24:55.418Z,100854.00
2022-08-05T20:27:26.635Z,100874.00
2022-08-05T20:29:58.275Z,100876.00
2022-08-05T20:32:26.043Z,100877.00
2022-08-05T20:34:52.760Z,100884.00
2022-08-05T20:38:04.873Z,100887.00
2022-08-05T20:40:07.341Z,100900.00
2022-08-05T20:42:34.681Z,100911.00
2022-08-05T20:45:02.246Z,100907.00
2022-08-05T20:47:31.670Z,100920.00
2022-08-05T20:49:59.463Z,100928.00
2022-08-05T20:52:26.412Z,100937.00
2022-08-05T20:55:15.751Z,100948.00
2022-08-05T20:57:43.982Z,100950.00
2022-08-05T21:00:41.006Z,100956.00
2022-08-05T21:03:06.942Z,100966.00
2022-08-05T21:05:54.109Z,100967.00
2022-08-05T21:08:33.073Z,100961.00
2022-08-05T21:11:11.873Z,100973.00
2022-08-05T21:13:47.945Z,100974.00
2022-08-05T21:16:29.088Z,100983.00
2022-08-05T21:18:59.937Z,100985.00
2022-08-05T21:21:43.689Z,100968.00
2022-08-05T21:24:12.837Z,100976.00
2022-08-05T21:26:53.688Z,100973.00
2022-08-05T21:29:26.590Z,100976.00
2022-08-05T21:31:59.116Z,100977.00
2022-08-05T21:34:25.742Z,100983.00
2022-08-05T21:36:54.892Z,100980.00
2022-08-05T21:39:26.733Z,100979.00
2022-08-05T21:42:01.674Z,100981.00
2022-08-05T21:44:30.391Z,100980.00
2022-08-05T21:46:58.104Z,100990.00
2022-08-05T21:49:48.313Z,100991.00
2022-08-05T21:52:21.652Z,100999.00
2022-08-05T21:54:55.185Z,100998.00
2022-08-05T21:57:31.435Z,101006.00
2022-08-05T22:00:06.010Z,101019.00
2022-08-05T22:02:41.732Z,101017.00
2022-08-05T22:05:10.147Z,101025.00
2022-08-05T22:07:40.261Z,101014.00
2022-08-05T22:10:26.512Z,101014.00
2022-08-05T22:12:58.850Z,101004.00
2022-08-05T22:16:01.027Z,101010.00
2022-08-05T22:18:24.847Z,101013.00
2022-08-05T22:20:52.742Z,101019.00
2022-08-05T22:24:02.129Z,101021.00
2022-08-05T22:26:49.789Z,101037.00
2022-08-05T22:29:17.472Z,101035.00
2022-08-05T22:31:45.705Z,101034.00
2022-08-05T22:34:28.373Z,101033.00
2022-08-05T22:36:56.546Z,101039.00
2022-08-05T22:39:32.552Z,101047.00
2022-08-05T22:42:10.964Z,101049.00
2022-08-05T22:44:40.062Z,101040.00
2022-08-05T22:47:06.894Z,101046.00
2022-08-05T22:50:19.331Z,101056.00
2022-08-05T22:52:30.231Z,101045.00
2022-08-05T22:54:59.536Z,101043.00
2022-08-05T22:57:26.672Z,101036.00
2022-08-05T22:59:54.263Z,101043.00
2022-08-05T23:02:28.882Z,101041.00
2022-08-05T23:05:01.870Z,101044.00
2022-08-05T23:07:48.586Z,101045.00
2022-08-05T23:10:19.911Z,101042.00
2022-08-05T23:12:51.477Z,101056.00
2022-08-05T23:15:29.573Z,101050.00
2022-08-05T23:18:00.689Z,101046.00
2022-08-05T23:20:30.415Z,101054.00
2022-08-05T23:22:58.778Z,101052.00
2022-08-05T23:25:52.476Z,101048.00
2022-08-05T23:28:16.003Z,101054.00
2022-08-05T23:30:54.037Z,101052.00
2022-08-05T23:33:26.382Z,101048.00
2022-08-05T23:36:09.942Z,101060.00
2022-08-05T23:38:37.470Z,101076.00
2022-08-05T23:41:04.247Z,101077.00
2022-08-05T23:43:37.261Z,101075.00
2022-08-05T23:46:20.395Z,101081.00
2022-08-05T23:49:00.658Z,101086.00
2022-08-05T23:51:55.026Z,101081.00
2022-08-05T23:54:30.299Z,101066.00
2022-08-05T23:57:04.593Z,101074.00
